Main page
METAR-TAF:

METAR-TAF

Airports :

Bahrain International Airport

Bahrain, Bahrain

latitude: 26-16N, longitude: 050-39E, elevation: 2 m

Current weather observation

The report was made 34 minutes ago, at 02:30 UTC
Wind 6 kt from the South/Southeast
Temperature 18°C
Humidity 64%
Pressure 1015 hPa
Visibility 10 km or more
no clouds below 1500 m and no cumulonimbus

METAR: OBBI 220230Z 15006KT CAVOK 18/11 Q1015 NOSIG

Time: 06:04 (03:04 UTC)

Forecast

The report was made 4 hours and 4 minutes ago, at 23:00 UTC
Forecast valid from 22 at 00 UTC to 23 at 06 UTC
Wind 12 kt from the Southeast
Visibility 10 km or more
Few clouds at a height of 3500 ft
Scattered clouds at a height of 10000 ft
Becoming
from 22 at 21 UTC to 23 at 00 UTC
Wind 20 kt from the North/Northwest
Visibility: 5000 m
Scattered clouds at a height of 1000 ft
Broken clouds at a height of 8000 ft
rain

TAF: OBBI 212300Z 2200/2306 14012KT 9999 FEW035 SCT100 BECMG 2221/2300 33020KT 5000 RA SCT010 BKN080

Weather observations and forecasts of more than 4000 airports (METAR and TAF reports).

The available stations are represented by yellow and red dots on the map.

Hover mouse over dot to see the name of the station.

Then click to see weather observations and forecasts.

To change the map : click on the green buttons with a black cross to zoom in, on the green button with a dash to zoom out, or on the green arrows for adjacent maps.


METAR-TAF: